Time;durP1;ratioP1;P1;durP2;ratioP2;P2;SDS_P1;SDS_P2;PMS_P1;PMS_P2;Temp;Humidity;BMP_temperature;BMP_pressure;BME280_temperature;BME280_humidity;BME280_pressure;Samples;Min_cycle;Max_cycle;Signal;HPM_P1;HPM_P2
2021/07/24 00:01:29;;;;;;;20.73;14.23;;;17.10;99.90;;;;;;5053332;28;25119;-67
2021/07/24 00:03:54;;;;;;;25.40;14.15;;;17.20;99.90;;;;;;5050792;28;25071;-68
2021/07/24 00:06:20;;;;;;;22.13;14.95;;;17.30;99.90;;;;;;5048308;28;25111;-65
2021/07/24 00:08:45;;;;;;;20.38;13.57;;;17.30;99.90;;;;;;5047914;28;25101;-65
2021/07/24 00:11:11;;;;;;;20.77;13.35;;;17.30;99.90;;;;;;5046601;28;25125;-65
2021/07/24 00:13:39;;;;;;;19.70;14.57;;;17.10;99.90;;;;;;5046719;28;25068;-66
2021/07/24 00:16:05;;;;;;;21.35;14.40;;;17.10;99.90;;;;;;5047113;28;25055;-66
2021/07/24 00:18:31;;;;;;;20.15;15.30;;;17.10;99.90;;;;;;5047250;28;25079;-65
2021/07/24 00:20:57;;;;;;;22.88;14.57;;;17.00;99.90;;;;;;5047469;28;25062;-64
2021/07/24 00:23:23;;;;;;;21.23;14.07;;;16.80;99.90;;;;;;5045863;28;25096;-65
2021/07/24 00:25:48;;;;;;;22.52;14.27;;;16.90;99.90;;;;;;5047819;28;25103;-66
2021/07/24 00:28:14;;;;;;;18.02;13.63;;;16.90;99.90;;;;;;5046705;28;25086;-65
2021/07/24 00:30:40;;;;;;;21.73;13.85;;;16.80;99.90;;;;;;5048156;28;25122;-66
2021/07/24 00:33:07;;;;;;;20.98;13.27;;;17.00;99.90;;;;;;5047108;28;25045;-65
2021/07/24 00:35:33;;;;;;;23.95;14.07;;;16.90;99.90;;;;;;5048349;28;25151;-66
2021/07/24 00:38:02;;;;;;;21.23;14.30;;;16.90;99.90;;;;;;5049179;28;25057;-66
2021/07/24 00:40:30;;;;;;;22.15;13.90;;;16.90;99.90;;;;;;5049277;28;25084;-66
2021/07/24 00:43:01;;;;;;;19.33;13.23;;;16.80;99.90;;;;;;5052507;28;25054;-65
2021/07/24 00:45:29;;;;;;;17.90;14.13;;;16.90;99.90;;;;;;5051556;28;25090;-66
2021/07/24 00:47:56;;;;;;;20.45;14.23;;;16.90;99.90;;;;;;5047818;28;25053;-64
2021/07/24 00:50:22;;;;;;;20.58;14.07;;;16.90;99.90;;;;;;5033908;28;25155;-65
2021/07/24 00:52:48;;;;;;;20.38;13.93;;;16.80;99.90;;;;;;5051672;28;25063;-66
2021/07/24 00:55:16;;;;;;;20.85;14.23;;;16.70;99.90;;;;;;5050687;28;25109;-65
2021/07/24 00:57:45;;;;;;;21.45;14.82;;;16.70;99.90;;;;;;5050284;28;25135;-65
2021/07/24 01:00:12;;;;;;;20.45;15.48;;;16.70;99.90;;;;;;5051313;28;25094;-66
2021/07/24 01:02:39;;;;;;;21.00;13.50;;;16.60;99.90;;;;;;5050648;28;25070;-66
2021/07/24 01:05:06;;;;;;;21.60;14.38;;;16.60;99.90;;;;;;5049453;28;25068;-67
2021/07/24 01:07:34;;;;;;;21.88;14.70;;;16.60;99.90;;;;;;5049617;28;25058;-66
2021/07/24 01:10:00;;;;;;;21.88;14.52;;;16.50;99.90;;;;;;5050250;28;25104;-66
2021/07/24 01:12:26;;;;;;;23.00;14.73;;;16.50;99.90;;;;;;5033309;28;25111;-65
2021/07/24 01:14:52;;;;;;;21.75;14.50;;;16.50;99.90;;;;;;5049879;28;25140;-67
2021/07/24 01:17:17;;;;;;;23.48;13.40;;;16.50;99.90;;;;;;5050017;28;25082;-65
2021/07/24 01:19:43;;;;;;;24.52;15.18;;;16.50;99.90;;;;;;5053415;28;25066;-65
2021/07/24 01:22:09;;;;;;;25.10;14.88;;;16.60;99.90;;;;;;5051013;28;25056;-66
2021/07/24 01:24:35;;;;;;;23.63;16.00;;;16.60;99.90;;;;;;5049721;28;25050;-66
2021/07/24 01:27:08;;;;;;;25.05;15.55;;;16.40;99.90;;;;;;5050419;28;25102;-66
2021/07/24 01:29:35;;;;;;;21.40;14.85;;;16.30;99.90;;;;;;5051121;28;25137;-64
2021/07/24 01:32:01;;;;;;;25.98;15.63;;;16.30;99.90;;;;;;5053121;28;25061;-67
2021/07/24 01:34:26;;;;;;;22.92;15.68;;;16.30;99.90;;;;;;5052318;28;25141;-66
2021/07/24 01:36:52;;;;;;;26.83;15.68;;;16.40;99.90;;;;;;5056209;28;25060;-67
2021/07/24 01:39:18;;;;;;;22.05;15.70;;;16.30;99.90;;;;;;5055981;28;25092;-65
2021/07/24 01:41:44;;;;;;;24.58;15.20;;;16.30;99.90;;;;;;5036845;28;25158;-65
2021/07/24 01:44:10;;;;;;;29.10;16.02;;;16.50;99.90;;;;;;5056022;28;25131;-66
2021/07/24 01:46:35;;;;;;;20.20;14.75;;;16.40;99.90;;;;;;5055857;28;25052;-65
2021/07/24 01:54:39;;;;;;;25.00;16.20;;;16.40;99.90;;;;;;5042186;28;25064;-65
2021/07/24 01:57:13;;;;;;;24.88;15.30;;;16.20;99.90;;;;;;5050230;28;25077;-66
2021/07/24 01:59:43;;;;;;;23.20;15.88;;;16.20;99.90;;;;;;5048990;28;25049;-65
2021/07/24 02:02:10;;;;;;;24.73;15.57;;;16.30;99.90;;;;;;5053617;28;25057;-65
2021/07/24 02:04:39;;;;;;;23.92;16.48;;;16.30;99.90;;;;;;5059626;28;25115;-66
2021/07/24 02:07:09;;;;;;;22.50;15.55;;;16.40;99.90;;;;;;5049291;28;25109;-65
2021/07/24 02:09:35;;;;;;;24.75;16.40;;;16.40;99.90;;;;;;5032127;28;25076;-66
2021/07/24 02:12:02;;;;;;;21.67;15.38;;;16.40;99.90;;;;;;5049041;28;25150;-65
2021/07/24 02:14:28;;;;;;;25.50;15.77;;;16.40;99.90;;;;;;5045250;28;25065;-66
2021/07/24 02:16:53;;;;;;;28.42;16.13;;;16.40;99.90;;;;;;5040630;28;25083;-64
2021/07/24 02:19:19;;;;;;;22.58;16.33;;;16.50;99.90;;;;;;5049116;28;25121;-65
2021/07/24 02:21:45;;;;;;;25.70;15.90;;;16.50;99.90;;;;;;5052690;28;25068;-65
2021/07/24 02:24:11;;;;;;;25.15;15.95;;;16.50;99.90;;;;;;5048593;28;25067;-65
2021/07/24 02:26:41;;;;;;;27.42;16.08;;;16.40;99.90;;;;;;5048335;28;25049;-65
2021/07/24 02:29:07;;;;;;;19.70;15.15;;;16.40;99.90;;;;;;5052619;28;25076;-65
2021/07/24 02:31:33;;;;;;;22.95;15.40;;;16.30;99.90;;;;;;5054428;28;25147;-64
2021/07/24 02:33:59;;;;;;;29.33;17.10;;;16.20;99.90;;;;;;5048278;28;25137;-64
2021/07/24 02:36:24;;;;;;;25.98;17.02;;;16.10;99.90;;;;;;5030771;28;25096;-64
2021/07/24 02:38:50;;;;;;;26.10;17.35;;;16.10;99.90;;;;;;5050326;28;25097;-65
2021/07/24 02:41:15;;;;;;;25.20;17.50;;;16.10;99.90;;;;;;5035513;28;25123;-65
2021/07/24 02:43:41;;;;;;;21.98;15.68;;;16.00;99.90;;;;;;5050058;28;25105;-65
2021/07/24 02:46:07;;;;;;;28.27;16.98;;;16.00;99.90;;;;;;5054189;28;25155;-65
2021/07/24 02:48:32;;;;;;;27.38;17.05;;;16.00;99.90;;;;;;5053521;28;25152;-65
2021/07/24 02:50:58;;;;;;;26.52;16.98;;;15.90;99.90;;;;;;5033735;28;25102;-64
2021/07/24 02:53:23;;;;;;;23.58;16.80;;;15.90;99.90;;;;;;5048318;28;25078;-64
2021/07/24 02:55:49;;;;;;;26.95;19.08;;;15.80;99.90;;;;;;5053057;28;25080;-65
2021/07/24 02:58:14;;;;;;;28.33;18.15;;;15.70;99.90;;;;;;5049093;28;25073;-65
2021/07/24 03:00:40;;;;;;;27.83;18.75;;;15.70;99.90;;;;;;5052032;28;25068;-65
2021/07/24 03:03:06;;;;;;;32.83;18.20;;;15.70;99.90;;;;;;5052948;28;25078;-64
2021/07/24 03:05:31;;;;;;;27.08;18.55;;;15.70;99.90;;;;;;5056759;28;25077;-64
2021/07/24 03:07:57;;;;;;;29.48;17.08;;;15.80;99.90;;;;;;5049387;28;25097;-64
2021/07/24 03:10:22;;;;;;;27.88;18.90;;;15.70;99.90;;;;;;5050492;28;25074;-66
2021/07/24 03:12:48;;;;;;;30.63;18.42;;;15.80;99.90;;;;;;5047634;28;25137;-66
2021/07/24 03:15:14;;;;;;;25.77;17.77;;;15.80;99.90;;;;;;5049440;28;25066;-65
2021/07/24 03:17:39;;;;;;;26.45;18.08;;;15.80;99.90;;;;;;5051887;28;25102;-64
2021/07/24 03:20:05;;;;;;;26.08;18.33;;;15.80;99.90;;;;;;5047814;28;25061;-65
2021/07/24 03:22:31;;;;;;;28.35;18.17;;;15.70;99.90;;;;;;5048310;28;25055;-65
2021/07/24 03:24:57;;;;;;;24.00;17.98;;;15.60;99.90;;;;;;5029778;28;25142;-64
2021/07/24 03:27:23;;;;;;;30.30;19.23;;;15.80;99.90;;;;;;5053941;28;25090;-64
2021/07/24 03:29:49;;;;;;;26.70;18.55;;;15.80;99.90;;;;;;5057969;28;25060;-64
2021/07/24 03:32:15;;;;;;;28.63;18.65;;;15.70;99.90;;;;;;5049507;28;25081;-65
2021/07/24 03:34:40;;;;;;;26.98;19.85;;;15.80;99.90;;;;;;5048842;28;25101;-64
2021/07/24 03:37:06;;;;;;;28.40;21.23;;;15.80;99.90;;;;;;5048539;28;25083;-64
2021/07/24 03:39:32;;;;;;;32.20;20.67;;;15.80;99.90;;;;;;5048182;28;25081;-65
2021/07/24 03:41:57;;;;;;;34.72;21.95;;;15.80;99.90;;;;;;5062518;22;25073;-61
2021/07/24 03:44:23;;;;;;;33.50;19.55;;;15.70;99.90;;;;;;5045630;28;25097;-61
2021/07/24 03:46:48;;;;;;;29.08;19.42;;;15.50;99.90;;;;;;5047258;28;25075;-62
2021/07/24 03:49:14;;;;;;;30.45;18.00;;;15.60;99.90;;;;;;5046928;28;25062;-61
2021/07/24 03:51:39;;;;;;;32.47;19.33;;;15.60;99.90;;;;;;5047432;28;25134;-60
2021/07/24 03:54:05;;;;;;;32.63;20.30;;;15.70;99.90;;;;;;5024492;28;25110;-60
2021/07/24 03:56:30;;;;;;;26.73;16.35;;;15.60;99.90;;;;;;5048118;28;25095;-61
2021/07/24 03:58:56;;;;;;;32.35;17.67;;;15.70;99.90;;;;;;5048271;28;25107;-63
2021/07/24 04:01:25;;;;;;;27.55;17.33;;;15.70;99.90;;;;;;5048814;28;25106;-61
2021/07/24 04:03:52;;;;;;;27.45;17.42;;;15.70;99.90;;;;;;5030582;28;25054;-61
2021/07/24 04:06:26;;;;;;;27.45;17.63;;;15.80;99.90;;;;;;5048312;28;25053;-62
2021/07/24 04:08:57;;;;;;;27.48;18.05;;;15.80;99.90;;;;;;5040524;28;25063;-62
2021/07/24 04:11:24;;;;;;;27.60;16.83;;;15.80;99.90;;;;;;5054248;28;25067;-61
2021/07/24 04:13:50;;;;;;;29.02;18.50;;;15.90;99.90;;;;;;5052036;28;25113;-61
2021/07/24 04:16:16;;;;;;;28.05;17.92;;;15.90;99.90;;;;;;5045293;28;25066;-61
2021/07/24 04:18:41;;;;;;;29.73;17.38;;;15.90;99.90;;;;;;5046348;28;25131;-60
2021/07/24 04:21:07;;;;;;;26.20;17.70;;;15.80;99.90;;;;;;5051698;28;25129;-60
2021/07/24 04:23:32;;;;;;;29.23;18.52;;;15.90;99.90;;;;;;5048575;28;25056;-62
2021/07/24 04:25:58;;;;;;;30.30;17.40;;;15.90;99.90;;;;;;5050890;28;25057;-61
2021/07/24 04:28:24;;;;;;;23.85;16.38;;;15.90;99.90;;;;;;5050266;28;25088;-61
2021/07/24 04:30:50;;;;;;;23.42;17.15;;;15.90;99.90;;;;;;5049583;28;25074;-61
2021/07/24 04:33:15;;;;;;;26.60;17.73;;;16.00;99.90;;;;;;5046664;28;25062;-62
2021/07/24 04:35:48;;;;;;;25.75;16.38;;;16.00;99.90;;;;;;5047127;28;25135;-61
2021/07/24 04:38:15;;;;;;;28.08;17.98;;;16.00;99.90;;;;;;5050960;28;25183;-60
2021/07/24 04:40:41;;;;;;;32.70;17.80;;;16.00;99.90;;;;;;5046994;28;25169;-60
2021/07/24 04:43:07;;;;;;;28.30;18.80;;;16.00;99.90;;;;;;5047415;28;25088;-60
2021/07/24 04:45:33;;;;;;;27.65;18.73;;;16.00;99.90;;;;;;5031415;28;25057;-60
2021/07/24 04:47:59;;;;;;;32.78;16.27;;;16.00;99.90;;;;;;5044810;28;25080;-60
2021/07/24 04:50:25;;;;;;;29.77;17.80;;;16.00;99.90;;;;;;5044762;28;25067;-61
2021/07/24 04:52:51;;;;;;;28.30;17.75;;;15.90;99.90;;;;;;5047147;28;25066;-61
2021/07/24 04:55:17;;;;;;;29.95;18.52;;;16.00;99.90;;;;;;5047069;28;25086;-61
2021/07/24 04:57:44;;;;;;;26.27;18.15;;;16.00;99.90;;;;;;5031160;28;25110;-61
2021/07/24 05:00:11;;;;;;;31.35;17.92;;;16.10;99.90;;;;;;5045124;28;25050;-61
2021/07/24 05:02:37;;;;;;;25.98;16.33;;;16.20;99.90;;;;;;5045735;28;25069;-61
2021/07/24 05:05:03;;;;;;;31.63;16.88;;;16.30;99.90;;;;;;5046747;28;25059;-61
2021/07/24 05:07:31;;;;;;;29.98;18.23;;;16.30;99.90;;;;;;5046473;28;25067;-61
2021/07/24 05:09:56;;;;;;;26.67;16.25;;;16.30;99.90;;;;;;5018567;28;25118;-61
2021/07/24 05:12:22;;;;;;;28.45;16.73;;;16.40;99.90;;;;;;5045434;28;25077;-61
2021/07/24 05:14:47;;;;;;;27.33;17.10;;;16.50;99.90;;;;;;5048579;28;25094;-62
2021/07/24 05:17:14;;;;;;;25.13;15.98;;;16.50;99.90;;;;;;5045644;28;25097;-61
2021/07/24 05:19:45;;;;;;;28.50;17.08;;;16.50;99.90;;;;;;5044409;28;25073;-62
2021/07/24 05:22:13;;;;;;;31.45;16.67;;;16.50;99.90;;;;;;5042957;28;25070;-61
2021/07/24 05:24:43;;;;;;;27.48;16.30;;;16.40;99.90;;;;;;5045984;28;25063;-61
2021/07/24 05:27:10;;;;;;;29.88;18.15;;;16.40;99.90;;;;;;5049509;28;25195;-62
2021/07/24 05:29:36;;;;;;;29.35;17.38;;;16.40;99.90;;;;;;5050754;28;25185;-62
2021/07/24 05:32:02;;;;;;;28.60;17.52;;;16.40;99.90;;;;;;5049990;28;25119;-61
2021/07/24 05:34:28;;;;;;;27.23;16.90;;;16.30;99.90;;;;;;5049599;28;25125;-61
2021/07/24 05:36:54;;;;;;;26.83;16.58;;;16.30;99.90;;;;;;5048996;28;25158;-62
2021/07/24 05:39:19;;;;;;;26.35;16.98;;;16.40;99.90;;;;;;5047095;28;25081;-61
2021/07/24 05:41:45;;;;;;;30.02;16.95;;;16.30;99.90;;;;;;5049293;28;25078;-62
2021/07/24 05:44:13;;;;;;;28.17;16.48;;;16.40;99.90;;;;;;5048284;28;25104;-61
2021/07/24 05:46:39;;;;;;;28.83;16.85;;;16.40;99.90;;;;;;5048935;28;25078;-62
2021/07/24 05:49:06;;;;;;;29.13;16.73;;;16.50;99.90;;;;;;5047403;28;25364;-62
2021/07/24 05:51:32;;;;;;;30.10;16.60;;;16.60;99.90;;;;;;5020867;28;25084;-62
2021/07/24 05:53:57;;;;;;;26.52;16.75;;;16.60;99.90;;;;;;5049461;28;25111;-62
2021/07/24 05:56:23;;;;;;;28.63;15.68;;;16.50;99.90;;;;;;5050306;28;25063;-61
2021/07/24 05:58:48;;;;;;;26.58;17.50;;;16.60;99.90;;;;;;5028650;28;25075;-61
2021/07/24 06:01:14;;;;;;;24.98;16.85;;;16.60;99.90;;;;;;5048006;28;25109;-62
2021/07/24 06:03:40;;;;;;;24.38;15.07;;;16.70;99.90;;;;;;5048816;28;25072;-60
2021/07/24 06:06:06;;;;;;;26.20;17.08;;;16.70;99.90;;;;;;5047206;28;25071;-61
2021/07/24 06:08:32;;;;;;;26.30;15.43;;;16.90;99.90;;;;;;5044615;28;25130;-62
2021/07/24 06:11:02;;;;;;;27.30;16.95;;;16.90;99.90;;;;;;5049539;28;25071;-61
2021/07/24 06:13:28;;;;;;;29.13;18.10;;;17.00;99.90;;;;;;5048269;28;25168;-61
2021/07/24 06:15:54;;;;;;;24.25;16.55;;;17.10;99.90;;;;;;5049710;28;25131;-60
2021/07/24 06:18:20;;;;;;;25.35;16.33;;;17.10;99.90;;;;;;5052030;28;25054;-62
2021/07/24 06:20:47;;;;;;;25.10;17.42;;;17.20;99.90;;;;;;5052466;28;25116;-60
2021/07/24 06:23:13;;;;;;;28.85;17.80;;;17.10;99.90;;;;;;5050039;28;25076;-60
2021/07/24 06:25:39;;;;;;;31.10;17.95;;;17.20;99.90;;;;;;5049252;28;25085;-62
2021/07/24 06:28:05;;;;;;;29.85;15.07;;;17.10;99.90;;;;;;5042119;28;25100;-61
2021/07/24 06:30:31;;;;;;;23.65;16.05;;;17.20;99.90;;;;;;5040584;28;25067;-61
2021/07/24 06:32:56;;;;;;;21.88;15.48;;;17.30;99.90;;;;;;5046025;28;25061;-61
2021/07/24 06:35:22;;;;;;;25.35;16.27;;;17.50;99.90;;;;;;5047789;28;25105;-60
2021/07/24 06:37:47;;;;;;;26.05;15.20;;;17.40;99.90;;;;;;5050702;28;25143;-61
2021/07/24 06:40:13;;;;;;;27.27;14.75;;;17.40;99.90;;;;;;5048957;28;25126;-60
2021/07/24 06:42:39;;;;;;;24.50;16.10;;;17.60;99.90;;;;;;5048226;28;25067;-60
2021/07/24 06:45:05;;;;;;;22.92;15.55;;;17.60;99.90;;;;;;5020305;28;25133;-60
2021/07/24 06:47:31;;;;;;;28.40;15.85;;;17.80;99.90;;;;;;5047992;28;25186;-62
2021/07/24 06:49:56;;;;;;;23.67;15.43;;;18.00;99.90;;;;;;5046882;28;25112;-61
2021/07/24 06:52:22;;;;;;;20.40;15.02;;;17.90;99.90;;;;;;5040687;28;25070;-62
2021/07/24 06:54:48;;;;;;;23.85;16.35;;;18.00;99.90;;;;;;5047991;28;25118;-60
2021/07/24 06:57:14;;;;;;;23.70;16.08;;;17.90;99.90;;;;;;5047441;28;25113;-62
2021/07/24 06:59:39;;;;;;;23.80;16.45;;;17.70;99.90;;;;;;5046091;28;25096;-60
2021/07/24 07:02:10;;;;;;;25.73;16.02;;;17.80;99.90;;;;;;5047306;28;25163;-61
2021/07/24 07:04:35;;;;;;;24.45;16.33;;;17.60;99.90;;;;;;5055525;28;25083;-61
2021/07/24 07:07:01;;;;;;;26.98;16.10;;;17.60;99.90;;;;;;5046922;28;25122;-63
2021/07/24 07:09:27;;;;;;;22.20;15.48;;;17.60;99.90;;;;;;5042864;28;25065;-61
2021/07/24 07:11:56;;;;;;;26.27;15.63;;;17.50;99.90;;;;;;5046882;28;25064;-61
2021/07/24 07:14:22;;;;;;;26.05;16.17;;;17.50;99.90;;;;;;5039011;28;25071;-62
2021/07/24 07:16:48;;;;;;;29.73;16.50;;;17.60;99.90;;;;;;5046072;28;25072;-61
2021/07/24 07:19:13;;;;;;;25.95;15.48;;;17.80;99.90;;;;;;5047154;28;25089;-62
2021/07/24 07:21:39;;;;;;;22.95;16.45;;;17.80;99.90;;;;;;5050755;28;25075;-63
2021/07/24 07:24:04;;;;;;;24.13;15.30;;;17.80;99.90;;;;;;5033377;28;25064;-63
2021/07/24 07:26:30;;;;;;;26.63;16.55;;;17.80;99.90;;;;;;5048914;28;25140;-62
2021/07/24 07:28:58;;;;;;;23.20;14.63;;;17.80;99.90;;;;;;5044059;28;25074;-62
2021/07/24 07:31:23;;;;;;;29.77;16.33;;;17.90;99.90;;;;;;5024592;28;25070;-63
2021/07/24 07:33:49;;;;;;;26.05;15.77;;;17.70;99.90;;;;;;5050311;28;25049;-63
2021/07/24 07:36:15;;;;;;;28.02;17.30;;;17.70;99.90;;;;;;5050478;28;25042;-62
2021/07/24 07:38:40;;;;;;;26.98;16.42;;;17.80;99.90;;;;;;5045481;28;25096;-62
2021/07/24 07:41:06;;;;;;;26.65;15.63;;;17.90;99.90;;;;;;5049804;28;25105;-61
2021/07/24 07:43:31;;;;;;;31.75;17.40;;;18.00;99.90;;;;;;5046782;28;25055;-61
2021/07/24 07:45:57;;;;;;;26.77;16.92;;;17.90;99.90;;;;;;5046792;28;25070;-64
2021/07/24 07:48:22;;;;;;;28.33;16.58;;;17.80;99.90;;;;;;5045558;28;25139;-60
2021/07/24 07:50:49;;;;;;;24.33;16.63;;;17.90;99.90;;;;;;5044810;28;25055;-61
2021/07/24 07:53:14;;;;;;;29.77;16.85;;;17.90;99.90;;;;;;5046535;28;25070;-61
2021/07/24 07:55:41;;;;;;;27.63;16.60;;;17.90;99.90;;;;;;5047001;28;25148;-61
2021/07/24 07:58:16;;;;;;;26.88;17.00;;;17.90;99.90;;;;;;5041839;28;25063;-62
2021/07/24 08:00:42;;;;;;;27.35;17.20;;;17.80;99.90;;;;;;5044976;28;25059;-61
2021/07/24 08:03:07;;;;;;;27.63;15.88;;;17.90;99.90;;;;;;5048117;28;25070;-59
2021/07/24 08:05:33;;;;;;;30.95;16.88;;;18.00;99.90;;;;;;5045568;28;25061;-61
2021/07/24 08:07:59;;;;;;;25.05;16.15;;;18.10;99.90;;;;;;5046591;28;25075;-62
2021/07/24 08:10:25;;;;;;;21.75;14.98;;;18.20;99.90;;;;;;5050968;28;25058;-62
2021/07/24 08:12:52;;;;;;;27.65;16.52;;;18.30;99.90;;;;;;5047830;28;25139;-60
2021/07/24 08:15:18;;;;;;;24.63;15.52;;;18.10;99.90;;;;;;5046582;28;25138;-61
2021/07/24 08:17:44;;;;;;;24.00;16.20;;;18.30;99.90;;;;;;5047365;28;25053;-62
2021/07/24 08:20:10;;;;;;;29.20;16.83;;;18.30;99.90;;;;;;5045581;28;25059;-62
2021/07/24 08:22:36;;;;;;;28.60;15.23;;;18.40;99.90;;;;;;5049193;28;25156;-60
2021/07/24 08:25:06;;;;;;;24.42;16.00;;;18.40;99.90;;;;;;5047538;28;25077;-62
2021/07/24 08:27:32;;;;;;;27.10;15.80;;;18.50;99.90;;;;;;5046414;28;25051;-62
2021/07/24 08:29:58;;;;;;;21.95;15.70;;;18.60;99.90;;;;;;5046981;28;25089;-62
2021/07/24 08:32:23;;;;;;;26.58;15.48;;;18.60;99.90;;;;;;5047304;28;25088;-63
2021/07/24 08:34:50;;;;;;;22.73;15.15;;;18.70;99.90;;;;;;5048386;28;25070;-63
2021/07/24 08:37:17;;;;;;;27.70;15.70;;;18.80;99.90;;;;;;5047926;28;25175;-65
2021/07/24 08:39:42;;;;;;;25.58;15.55;;;18.90;99.90;;;;;;5051221;28;25131;-61
2021/07/24 08:42:08;;;;;;;25.27;15.77;;;19.00;99.90;;;;;;5046196;28;25155;-60
2021/07/24 08:44:37;;;;;;;23.52;15.80;;;18.90;99.90;;;;;;5051500;28;25092;-63
2021/07/24 08:47:04;;;;;;;21.80;15.15;;;18.90;99.90;;;;;;5052481;28;25065;-62
2021/07/24 08:49:30;;;;;;;25.42;15.05;;;19.00;99.90;;;;;;5049764;28;25074;-63
2021/07/24 08:51:58;;;;;;;21.30;14.32;;;19.10;99.90;;;;;;5046979;28;25081;-63
2021/07/24 08:54:23;;;;;;;25.27;15.30;;;19.20;99.90;;;;;;5055265;28;25075;-62
2021/07/24 08:56:50;;;;;;;24.90;15.57;;;19.20;99.90;;;;;;5049299;28;25059;-63
2021/07/24 08:59:18;;;;;;;23.50;15.95;;;19.40;99.90;;;;;;5050647;28;25073;-62
2021/07/24 09:01:53;;;;;;;26.60;16.80;;;19.40;99.90;;;;;;5046852;28;25063;-62
2021/07/24 09:04:22;;;;;;;24.20;16.17;;;19.60;99.90;;;;;;5047111;28;25124;-64
2021/07/24 09:06:53;;;;;;;23.90;15.13;;;19.80;99.90;;;;;;5051164;28;25187;-63
2021/07/24 09:09:20;;;;;;;26.35;17.17;;;19.80;99.90;;;;;;5050382;28;25066;-62
2021/07/24 09:11:46;;;;;;;23.60;15.80;;;19.90;99.90;;;;;;5030782;28;25069;-62
2021/07/24 09:14:11;;;;;;;27.13;16.73;;;19.90;99.90;;;;;;5048667;28;25063;-62
2021/07/24 09:16:38;;;;;;;28.58;18.20;;;20.00;99.90;;;;;;5051881;28;25127;-62
2021/07/24 09:19:04;;;;;;;23.70;16.05;;;20.00;99.90;;;;;;5047529;28;25050;-63
2021/07/24 09:21:30;;;;;;;24.58;16.27;;;19.90;99.90;;;;;;5024940;28;25069;-63
2021/07/24 09:24:19;;;;;;;21.52;15.98;;;20.00;99.90;;;;;;5051353;28;25122;-62
2021/07/24 09:26:45;;;;;;;21.13;15.85;;;20.20;99.90;;;;;;5052584;28;25112;-62
2021/07/24 09:29:14;;;;;;;20.95;15.73;;;20.30;99.90;;;;;;5049046;28;25044;-61
2021/07/24 09:31:43;;;;;;;25.42;16.33;;;20.40;99.90;;;;;;5051408;28;25140;-61
2021/07/24 09:34:10;;;;;;;25.92;16.30;;;20.40;99.90;;;;;;5048929;28;25075;-61
2021/07/24 09:36:37;;;;;;;23.35;16.73;;;20.50;99.90;;;;;;5049606;28;25071;-63
2021/07/24 09:39:11;;;;;;;25.13;16.63;;;20.60;99.90;;;;;;5049015;28;25089;-62
2021/07/24 09:44:04;;;;;;;23.33;15.63;;;21.00;99.90;;;;;;5008418;28;25066;-67
2021/07/24 09:46:29;;;;;;;23.50;15.65;;;21.10;99.90;;;;;;5011242;28;25071;-68
2021/07/24 09:48:56;;;;;;;21.17;14.90;;;21.20;99.90;;;;;;5011164;28;25096;-69
2021/07/24 09:51:35;;;;;;;20.75;15.68;;;21.30;99.90;;;;;;5000873;28;25056;-67
2021/07/24 09:54:01;;;;;;;23.05;15.25;;;21.20;99.90;;;;;;5011871;28;25131;-66
2021/07/24 09:56:40;;;;;;;24.90;16.00;;;21.30;99.90;;;;;;4994789;28;25462;-66
2021/07/24 09:59:31;;;;;;;23.48;15.77;;;21.30;99.90;;;;;;5011040;28;25083;-68
2021/07/24 10:02:04;;;;;;;22.77;16.05;;;21.40;99.90;;;;;;5011203;28;25055;-67
2021/07/24 10:04:35;;;;;;;20.10;15.48;;;21.40;99.90;;;;;;4990088;28;25071;-68
2021/07/24 10:07:08;;;;;;;20.48;15.73;;;21.40;99.90;;;;;;5008796;28;25155;-67
2021/07/24 10:09:35;;;;;;;24.75;15.85;;;21.40;99.90;;;;;;5009070;28;25075;-67
2021/07/24 10:12:06;;;;;;;22.92;16.08;;;21.50;99.90;;;;;;5008022;28;25061;-66
2021/07/24 10:14:33;;;;;;;23.90;15.82;;;21.50;99.90;;;;;;5010197;28;25077;-68
2021/07/24 10:16:59;;;;;;;25.90;16.75;;;21.40;99.90;;;;;;5006725;28;25113;-67
2021/07/24 10:19:26;;;;;;;30.38;17.63;;;21.30;99.90;;;;;;5032167;28;25059;-68
2021/07/24 10:21:54;;;;;;;23.30;15.82;;;21.30;99.90;;;;;;5006875;28;25083;-69
2021/07/24 10:24:21;;;;;;;20.67;15.60;;;21.30;99.90;;;;;;5017563;28;25107;-67
2021/07/24 10:27:00;;;;;;;26.90;17.52;;;21.40;99.90;;;;;;5005642;28;25111;-68
2021/07/24 10:29:32;;;;;;;21.65;15.88;;;21.30;99.90;;;;;;5008677;28;25076;-66
2021/07/24 10:32:10;;;;;;;23.20;16.55;;;21.40;99.90;;;;;;5007638;28;25075;-66
2021/07/24 10:34:39;;;;;;;22.40;16.88;;;21.40;99.90;;;;;;5008540;28;25072;-67
2021/07/24 10:37:32;;;;;;;24.73;16.65;;;21.30;99.90;;;;;;5009198;28;25078;-67
2021/07/24 10:40:22;;;;;;;27.38;17.38;;;21.40;99.90;;;;;;5000831;28;25076;-68
2021/07/24 10:42:49;;;;;;;26.60;16.08;;;21.40;99.90;;;;;;5001848;28;25124;-67
2021/07/24 10:45:50;;;;;;;24.33;15.35;;;21.40;99.90;;;;;;5007962;28;25087;-67
2021/07/24 10:48:27;;;;;;;22.65;16.42;;;21.50;99.90;;;;;;5004244;28;25086;-66
2021/07/24 10:50:53;;;;;;;24.42;16.65;;;21.60;99.90;;;;;;5009179;28;25059;-67
2021/07/24 10:53:18;;;;;;;25.48;16.27;;;21.40;99.90;;;;;;5008104;28;25068;-67
2021/07/24 10:55:46;;;;;;;20.13;15.63;;;21.50;99.90;;;;;;5008530;28;25118;-68
2021/07/24 10:58:12;;;;;;;25.70;17.08;;;21.60;99.90;;;;;;5009076;28;25132;-69
2021/07/24 11:00:50;;;;;;;23.15;16.33;;;21.80;99.90;;;;;;5009061;28;25072;-66
2021/07/24 11:03:37;;;;;;;23.40;17.25;;;21.60;99.90;;;;;;5009623;28;25064;-67
2021/07/24 11:06:22;;;;;;;23.70;17.85;;;21.50;99.90;;;;;;5008394;28;25154;-67
2021/07/24 11:09:07;;;;;;;21.98;17.85;;;21.40;99.90;;;;;;5009939;28;25148;-67
2021/07/24 11:11:45;;;;;;;24.95;17.75;;;21.30;99.90;;;;;;5000998;28;25076;-65
2021/07/24 11:14:34;;;;;;;25.27;18.77;;;21.30;99.90;;;;;;5008226;28;25075;-67
2021/07/24 11:17:05;;;;;;;26.05;18.30;;;21.20;99.90;;;;;;4994139;28;25057;-66
2021/07/24 11:19:32;;;;;;;20.77;17.00;;;21.30;99.90;;;;;;5006400;28;25059;-67
2021/07/24 11:22:14;;;;;;;28.25;17.10;;;21.30;99.90;;;;;;5012926;28;25078;-67
2021/07/24 11:24:42;;;;;;;33.42;17.85;;;21.30;99.90;;;;;;5003312;28;25143;-69
2021/07/24 11:27:08;;;;;;;26.25;17.33;;;21.30;99.90;;;;;;5004951;28;25137;-71
2021/07/24 11:29:33;;;;;;;34.22;17.90;;;21.40;99.90;;;;;;4990006;28;25057;-67
2021/07/24 11:32:02;;;;;;;28.75;17.20;;;21.30;99.90;;;;;;5005428;28;25062;-66
2021/07/24 11:34:30;;;;;;;28.92;17.25;;;21.50;99.90;;;;;;5004397;28;25079;-67
2021/07/24 11:36:56;;;;;;;26.23;18.23;;;21.60;99.90;;;;;;5003369;28;25138;-67
2021/07/24 11:39:26;;;;;;;23.17;17.48;;;21.70;99.90;;;;;;5008336;28;25066;-67
2021/07/24 11:41:53;;;;;;;23.77;17.40;;;21.70;99.90;;;;;;5003447;28;25059;-67
2021/07/24 11:44:29;;;;;;;26.48;17.08;;;21.80;99.90;;;;;;5005521;28;25101;-66
2021/07/24 11:47:04;;;;;;;28.88;16.98;;;21.90;99.90;;;;;;4991059;28;25082;-66
2021/07/24 11:49:31;;;;;;;23.90;15.85;;;22.10;99.90;;;;;;5009109;28;25106;-66
2021/07/24 11:51:58;;;;;;;22.52;16.00;;;22.10;99.90;;;;;;5000528;28;25056;-68
2021/07/24 11:54:34;;;;;;;21.27;15.05;;;22.20;99.90;;;;;;5006390;28;25071;-67
2021/07/24 11:57:00;;;;;;;23.10;17.10;;;22.20;99.90;;;;;;5000851;28;25105;-66
2021/07/24 11:59:28;;;;;;;23.92;17.10;;;22.20;99.90;;;;;;5007642;28;25088;-67
2021/07/24 12:01:58;;;;;;;22.35;16.27;;;22.20;99.90;;;;;;4991083;28;25073;-67
2021/07/24 12:04:24;;;;;;;23.45;16.58;;;22.30;99.90;;;;;;4998828;28;25140;-67
2021/07/24 12:06:57;;;;;;;23.33;16.55;;;22.40;99.90;;;;;;5013813;28;25134;-66
2021/07/24 12:09:24;;;;;;;26.52;18.45;;;22.40;99.90;;;;;;5004845;28;25140;-67
2021/07/24 12:11:58;;;;;;;23.52;16.38;;;22.40;99.90;;;;;;5006151;28;25098;-68
2021/07/24 12:14:27;;;;;;;30.00;17.00;;;22.30;99.90;;;;;;5004970;28;25048;-67
2021/07/24 12:17:05;;;;;;;25.90;16.98;;;22.20;99.90;;;;;;5007730;28;25089;-68
2021/07/24 12:19:41;;;;;;;25.58;17.20;;;22.30;99.90;;;;;;5002697;28;25140;-67
2021/07/24 12:22:20;;;;;;;27.10;17.83;;;22.40;99.90;;;;;;5004291;28;25069;-70
2021/07/24 12:24:48;;;;;;;28.90;17.38;;;22.50;99.90;;;;;;4992302;28;25068;-66
2021/07/24 12:27:15;;;;;;;31.02;18.45;;;22.40;99.90;;;;;;5008301;28;25090;-70
2021/07/24 12:29:52;;;;;;;33.67;18.55;;;22.40;99.90;;;;;;5006233;28;25072;-71
2021/07/24 12:32:18;;;;;;;24.58;17.58;;;22.40;99.90;;;;;;5009440;28;25073;-68
2021/07/24 12:34:46;;;;;;;29.83;19.23;;;22.50;99.90;;;;;;5007188;28;25146;-66
2021/07/24 12:37:32;;;;;;;29.70;18.77;;;22.50;99.90;;;;;;4997566;28;25143;-67
2021/07/24 12:40:15;;;;;;;31.23;20.27;;;22.30;99.90;;;;;;5018976;28;25056;-66